Time;durP1;ratioP1;P1;durP2;ratioP2;P2;SDS_P1;SDS_P2;PMS_P1;PMS_P2;Temp;Humidity;BMP_temperature;BMP_pressure;BME280_temperature;BME280_humidity;BME280_pressure;Samples;Min_cycle;Max_cycle;Signal;HPM_P1;HPM_P2
2021/12/25 00:00:07;;;;;;;6.50;2.80;;;;;;;;;;105573;1294;64815;-26
2021/12/25 00:02:54;;;;;;;5.60;2.80;;;;;;;;;;105613;1294;64956;-26
2021/12/25 00:05:21;;;;;;;5.90;2.60;;;;;;;;;;105672;1291;64880;-27
2021/12/25 00:07:48;;;;;;;5.50;3.00;;;;;;;;;;105671;1292;64812;-27
2021/12/25 00:10:15;;;;;;;7.40;2.80;;;;;;;;;;105632;1296;64876;-27
2021/12/25 00:12:42;;;;;;;6.60;2.90;;;;;;;;;;105533;1293;64824;-28
2021/12/25 00:15:09;;;;;;;6.20;2.70;;;;;;;;;;105647;1295;64891;-23
2021/12/25 00:17:36;;;;;;;5.50;2.60;;;;;;;;;;105650;1295;64857;-24
2021/12/25 00:20:04;;;;;;;5.10;2.20;;;;;;;;;;105706;1295;64884;-26
2021/12/25 00:22:31;;;;;;;5.60;2.60;;;;;;;;;;105708;1292;64854;-25
2021/12/25 00:24:59;;;;;;;5.40;2.50;;;;;;;;;;105645;1292;64848;-26
2021/12/25 00:30:10;;;;;;;5.80;2.70;;;;;;;;;;105498;1296;64845;-23
2021/12/25 00:35:12;;;;;;;5.30;2.40;;;;;;;;;;105609;1294;64709;-27
2021/12/25 00:37:39;;;;;;;7.20;2.60;;;;;;;;;;105661;1296;64974;-22
2021/12/25 00:40:07;;;;;;;6.10;2.60;;;;;;;;;;105690;1294;64779;-26
2021/12/25 00:42:34;;;;;;;7.50;2.40;;;;;;;;;;105717;1293;64882;-26
2021/12/25 00:45:02;;;;;;;6.40;2.50;;;;;;;;;;105504;1295;64717;-26
2021/12/25 00:47:29;;;;;;;5.10;2.30;;;;;;;;;;105555;1293;64805;-25
2021/12/25 00:49:57;;;;;;;5.50;2.10;;;;;;;;;;105687;1293;64821;-26
2021/12/25 00:52:24;;;;;;;7.70;2.60;;;;;;;;;;105661;1293;64788;-26
2021/12/25 00:54:50;;;;;;;7.40;2.60;;;;;;;;;;105637;1294;64752;-22
2021/12/25 00:57:18;;;;;;;7.70;2.40;;;;;;;;;;105601;1293;64869;-22
2021/12/25 00:59:44;;;;;;;7.80;2.40;;;;;;;;;;105701;1293;64868;-26
2021/12/25 01:02:11;;;;;;;7.60;2.60;;;;;;;;;;105663;1293;64726;-26
2021/12/25 01:04:38;;;;;;;6.30;2.50;;;;;;;;;;105733;1295;64783;-25
2021/12/25 01:07:06;;;;;;;6.00;2.60;;;;;;;;;;105533;1295;64902;-25
2021/12/25 01:09:32;;;;;;;6.40;2.30;;;;;;;;;;105563;1293;64889;-21
2021/12/25 01:11:59;;;;;;;6.80;2.40;;;;;;;;;;105680;1292;64899;-22
2021/12/25 01:14:43;;;;;;;6.00;2.00;;;;;;;;;;105342;1297;64887;-27
2021/12/25 01:17:25;;;;;;;6.30;2.00;;;;;;;;;;105335;1296;65287;-26
2021/12/25 01:26:02;;;;;;;4.50;1.90;;;;;;;;;;105031;1299;64827;-25
2021/12/25 01:34:01;;;;;;;6.00;1.80;;;;;;;;;;105632;1294;64880;-22
2021/12/25 01:37:00;;;;;;;6.10;1.90;;;;;;;;;;105680;1294;64761;-23
2021/12/25 01:49:56;;;;;;;4.40;1.50;;;;;;;;;;105665;1295;64842;-29
2021/12/25 01:52:29;;;;;;;4.60;1.70;;;;;;;;;;105665;1293;64824;-23
2021/12/25 01:55:00;;;;;;;5.00;1.70;;;;;;;;;;105673;1293;64847;-31
2021/12/25 01:57:28;;;;;;;3.80;1.70;;;;;;;;;;105694;1293;64804;-23
2021/12/25 01:59:58;;;;;;;4.40;1.90;;;;;;;;;;105669;1294;64876;-25
2021/12/25 02:02:25;;;;;;;5.50;1.80;;;;;;;;;;105679;1293;64903;-25
2021/12/25 02:04:53;;;;;;;4.70;1.50;;;;;;;;;;105617;1293;64737;-22
2021/12/25 02:07:21;;;;;;;5.20;1.70;;;;;;;;;;105652;1293;64785;-22
2021/12/25 02:09:48;;;;;;;4.40;1.90;;;;;;;;;;105643;1295;64769;-22
2021/12/25 02:12:16;;;;;;;6.00;1.90;;;;;;;;;;105707;1293;65657;-22
2021/12/25 02:14:45;;;;;;;4.70;1.70;;;;;;;;;;105735;1293;64771;-26
2021/12/25 02:17:52;;;;;;;5.60;1.80;;;;;;;;;;105693;1293;64793;-26
2021/12/25 02:20:17;;;;;;;7.60;2.00;;;;;;;;;;105586;1293;65574;-24
2021/12/25 02:22:46;;;;;;;4.90;1.90;;;;;;;;;;105635;1288;65274;-22
2021/12/25 02:25:13;;;;;;;4.50;1.90;;;;;;;;;;105674;1292;65057;-22
2021/12/25 02:27:40;;;;;;;4.50;1.50;;;;;;;;;;105655;1291;64904;-22
2021/12/25 02:30:08;;;;;;;6.10;2.10;;;;;;;;;;105650;1293;64874;-25
2021/12/25 02:32:35;;;;;;;4.80;1.90;;;;;;;;;;105650;1285;64783;-25
2021/12/25 02:35:03;;;;;;;4.30;1.70;;;;;;;;;;105742;1291;64778;-25
2021/12/25 02:37:30;;;;;;;6.60;1.90;;;;;;;;;;105679;1292;66407;-23
2021/12/25 02:39:58;;;;;;;4.90;1.60;;;;;;;;;;105633;1294;64738;-22
2021/12/25 02:42:25;;;;;;;3.90;1.60;;;;;;;;;;105525;1294;64945;-23
2021/12/25 02:44:52;;;;;;;5.30;1.90;;;;;;;;;;105675;1293;64820;-22
2021/12/25 02:47:21;;;;;;;4.90;1.80;;;;;;;;;;105639;1293;64841;-22
2021/12/25 02:49:51;;;;;;;5.40;1.80;;;;;;;;;;105577;1297;64861;-22
2021/12/25 02:52:19;;;;;;;4.70;1.90;;;;;;;;;;105633;1293;64921;-22
2021/12/25 02:54:47;;;;;;;5.80;1.90;;;;;;;;;;105493;1285;64863;-23
2021/12/25 02:57:16;;;;;;;4.40;1.80;;;;;;;;;;105676;1292;64849;-21
2021/12/25 02:59:44;;;;;;;3.50;1.30;;;;;;;;;;105704;1293;64707;-21
2021/12/25 03:02:14;;;;;;;4.00;1.70;;;;;;;;;;105681;1293;64852;-24
2021/12/25 03:04:41;;;;;;;3.80;1.40;;;;;;;;;;105668;1291;64920;-26
2021/12/25 03:07:09;;;;;;;4.30;1.60;;;;;;;;;;105660;1293;64774;-26
2021/12/25 03:09:36;;;;;;;4.00;1.60;;;;;;;;;;105654;1294;64849;-26
2021/12/25 03:12:05;;;;;;;3.30;1.20;;;;;;;;;;105651;1293;65321;-25
2021/12/25 03:14:51;;;;;;;4.40;1.40;;;;;;;;;;105737;1294;65530;-22
2021/12/25 03:17:17;;;;;;;4.00;1.40;;;;;;;;;;105664;1293;64896;-22
2021/12/25 03:19:45;;;;;;;3.60;1.50;;;;;;;;;;105684;1295;64848;-25
2021/12/25 03:22:13;;;;;;;4.70;1.80;;;;;;;;;;105661;1293;64849;-25
2021/12/25 03:24:40;;;;;;;4.00;1.60;;;;;;;;;;105684;1294;66032;-21
2021/12/25 03:27:07;;;;;;;5.30;1.60;;;;;;;;;;105660;1294;64787;-23
2021/12/25 03:29:39;;;;;;;3.90;1.30;;;;;;;;;;105792;1290;64868;-22
2021/12/25 03:32:07;;;;;;;3.70;1.40;;;;;;;;;;105839;1293;64848;-30
2021/12/25 03:34:34;;;;;;;4.00;1.40;;;;;;;;;;105832;1290;64918;-41
2021/12/25 03:37:02;;;;;;;3.20;1.00;;;;;;;;;;105831;1292;64706;-27
2021/12/25 03:39:29;;;;;;;4.30;1.40;;;;;;;;;;105836;1290;64860;-26
2021/12/25 03:41:57;;;;;;;4.00;1.30;;;;;;;;;;105844;1290;64752;-25
2021/12/25 03:44:25;;;;;;;4.00;1.50;;;;;;;;;;105827;1287;64850;-26
2021/12/25 03:46:54;;;;;;;3.30;1.10;;;;;;;;;;105844;1288;64919;-26
2021/12/25 03:49:44;;;;;;;3.40;1.50;;;;;;;;;;105836;1290;64906;-26
2021/12/25 03:57:50;;;;;;;4.50;1.40;;;;;;;;;;105818;1291;64806;-25
2021/12/25 04:00:26;;;;;;;3.90;1.70;;;;;;;;;;105818;1291;64878;-21
2021/12/25 04:02:57;;;;;;;4.00;1.20;;;;;;;;;;105831;1290;64855;-23
2021/12/25 04:05:29;;;;;;;3.30;1.20;;;;;;;;;;105817;1290;64974;-26
2021/12/25 04:08:03;;;;;;;4.70;1.30;;;;;;;;;;105814;1290;64793;-25
2021/12/25 04:10:35;;;;;;;3.60;1.20;;;;;;;;;;105631;1293;64854;-26
2021/12/25 04:13:04;;;;;;;3.80;1.30;;;;;;;;;;105835;1290;64836;-24
2021/12/25 04:15:32;;;;;;;4.00;1.50;;;;;;;;;;105859;1291;64754;-21
2021/12/25 04:17:59;;;;;;;3.40;1.20;;;;;;;;;;105828;1290;64826;-23
2021/12/25 04:20:27;;;;;;;4.20;1.40;;;;;;;;;;105797;1291;64897;-22
2021/12/25 04:23:01;;;;;;;3.20;0.90;;;;;;;;;;105809;1290;64919;-23
2021/12/25 04:25:31;;;;;;;3.40;1.20;;;;;;;;;;105845;1293;64866;-24
2021/12/25 04:28:03;;;;;;;3.90;1.20;;;;;;;;;;105809;1290;64917;-30
2021/12/25 04:30:39;;;;;;;3.10;1.10;;;;;;;;;;105785;1282;64818;-26
2021/12/25 05:03:26;;;;;;;3.50;1.10;;;;;;;;;;105668;1290;64922;-24
2021/12/25 05:05:54;;;;;;;4.00;1.20;;;;;;;;;;105631;1290;64955;-30
2021/12/25 05:08:21;;;;;;;3.40;1.00;;;;;;;;;;105849;1291;64870;-26
2021/12/25 05:10:48;;;;;;;3.90;1.50;;;;;;;;;;105525;1290;64901;-25
2021/12/25 05:13:15;;;;;;;3.80;1.30;;;;;;;;;;105793;1290;64843;-26
2021/12/25 05:15:42;;;;;;;2.50;0.90;;;;;;;;;;105845;1291;64826;-25
2021/12/25 05:18:09;;;;;;;4.50;1.30;;;;;;;;;;105876;1291;64871;-27
2021/12/25 05:20:36;;;;;;;3.60;1.30;;;;;;;;;;105858;1291;64778;-21
2021/12/25 05:23:03;;;;;;;3.20;1.10;;;;;;;;;;105843;1290;64839;-21
2021/12/25 05:25:31;;;;;;;3.70;1.00;;;;;;;;;;105816;1294;64752;-24
2021/12/25 05:28:00;;;;;;;2.90;1.00;;;;;;;;;;105827;1294;64877;-24
2021/12/25 05:30:27;;;;;;;3.70;1.20;;;;;;;;;;105814;1291;64741;-26
2021/12/25 05:32:54;;;;;;;3.60;1.20;;;;;;;;;;105798;1290;64838;-23
2021/12/25 05:35:21;;;;;;;3.90;1.20;;;;;;;;;;105819;1290;64897;-27
2021/12/25 05:37:48;;;;;;;3.20;1.20;;;;;;;;;;105830;1290;64901;-26
2021/12/25 05:40:15;;;;;;;3.20;1.00;;;;;;;;;;105842;1292;64709;-26
2021/12/25 05:42:42;;;;;;;4.40;1.40;;;;;;;;;;105598;1294;64877;-27
2021/12/25 05:45:10;;;;;;;3.10;1.00;;;;;;;;;;105647;1294;64744;-22
2021/12/25 05:47:37;;;;;;;4.00;1.20;;;;;;;;;;105820;1294;64749;-22
2021/12/25 05:50:04;;;;;;;3.30;1.20;;;;;;;;;;105840;1291;64775;-25
2021/12/25 05:52:31;;;;;;;3.50;1.10;;;;;;;;;;105819;1291;64863;-21
2021/12/25 05:54:58;;;;;;;3.40;1.10;;;;;;;;;;105831;1290;64853;-26
2021/12/25 05:57:26;;;;;;;3.80;1.30;;;;;;;;;;105683;1294;64888;-27
2021/12/25 05:59:52;;;;;;;3.30;1.10;;;;;;;;;;105831;1294;64723;-33
2021/12/25 06:02:19;;;;;;;3.20;1.20;;;;;;;;;;105623;1296;64855;-33
2021/12/25 06:04:46;;;;;;;3.70;1.20;;;;;;;;;;105638;1293;64883;-26
2021/12/25 06:07:13;;;;;;;3.00;1.10;;;;;;;;;;105815;1291;65351;-25
2021/12/25 06:09:40;;;;;;;4.70;1.50;;;;;;;;;;105606;1293;64789;-26
2021/12/25 06:12:10;;;;;;;3.40;1.30;;;;;;;;;;105616;1293;64853;-26
2021/12/25 06:14:37;;;;;;;3.30;1.30;;;;;;;;;;105837;1291;64724;-24
2021/12/25 06:17:04;;;;;;;3.40;1.30;;;;;;;;;;105822;1291;64854;-22
2021/12/25 06:19:32;;;;;;;3.80;1.60;;;;;;;;;;105886;1291;64825;-25
2021/12/25 06:21:58;;;;;;;3.50;1.30;;;;;;;;;;105814;1291;64818;-25
2021/12/25 06:24:27;;;;;;;4.00;1.30;;;;;;;;;;105829;1290;64821;-21
2021/12/25 06:26:54;;;;;;;4.20;1.30;;;;;;;;;;105624;1291;65421;-27
2021/12/25 06:29:23;;;;;;;4.10;1.50;;;;;;;;;;105832;1294;64744;-28
2021/12/25 06:31:50;;;;;;;3.30;1.40;;;;;;;;;;105825;1291;64849;-24
2021/12/25 06:34:17;;;;;;;3.40;1.30;;;;;;;;;;105829;1291;64784;-26
2021/12/25 06:36:45;;;;;;;3.80;1.60;;;;;;;;;;105807;1291;64929;-28
2021/12/25 06:39:14;;;;;;;3.30;1.30;;;;;;;;;;105835;1291;64741;-25
2021/12/25 06:41:44;;;;;;;3.40;1.50;;;;;;;;;;105842;1290;64812;-25
2021/12/25 06:44:11;;;;;;;4.10;1.30;;;;;;;;;;105795;1290;64768;-23
2021/12/25 06:46:38;;;;;;;3.60;1.40;;;;;;;;;;105808;1290;64805;-23
2021/12/25 06:49:05;;;;;;;3.70;1.40;;;;;;;;;;105620;1294;64938;-32
2021/12/25 06:51:34;;;;;;;3.50;1.50;;;;;;;;;;105531;1293;64888;-32
2021/12/25 06:54:02;;;;;;;3.70;1.30;;;;;;;;;;105668;1293;64912;-24
2021/12/25 06:56:30;;;;;;;4.20;1.70;;;;;;;;;;105695;1293;64829;-25
2021/12/25 06:58:57;;;;;;;4.20;1.80;;;;;;;;;;105721;1293;64912;-26
2021/12/25 07:01:24;;;;;;;4.70;1.80;;;;;;;;;;105726;1293;65435;-26
2021/12/25 07:03:51;;;;;;;4.00;1.60;;;;;;;;;;105685;1293;64764;-26
2021/12/25 07:06:18;;;;;;;4.40;1.70;;;;;;;;;;105668;1293;64818;-23
2021/12/25 07:08:45;;;;;;;4.30;1.70;;;;;;;;;;105675;1295;64856;-32
2021/12/25 07:11:13;;;;;;;3.70;1.60;;;;;;;;;;105536;1294;64874;-30
2021/12/25 07:13:45;;;;;;;3.50;1.30;;;;;;;;;;105528;1296;64742;-26
2021/12/25 07:16:13;;;;;;;4.90;1.60;;;;;;;;;;105492;1293;64873;-33
2021/12/25 07:18:40;;;;;;;4.30;1.70;;;;;;;;;;105662;1295;64815;-27
2021/12/25 07:21:08;;;;;;;6.10;1.80;;;;;;;;;;105582;1293;64830;-22
2021/12/25 07:23:36;;;;;;;4.10;1.60;;;;;;;;;;105530;1293;64958;-22
2021/12/25 07:26:03;;;;;;;3.60;1.40;;;;;;;;;;105703;1293;65054;-27
2021/12/25 07:28:31;;;;;;;4.10;1.70;;;;;;;;;;105540;1296;64834;-25
2021/12/25 07:31:00;;;;;;;4.00;1.90;;;;;;;;;;105731;1292;64863;-21
2021/12/25 07:33:28;;;;;;;4.60;1.80;;;;;;;;;;105676;1295;64793;-22
2021/12/25 07:35:55;;;;;;;4.30;1.80;;;;;;;;;;105702;1293;64765;-25
2021/12/25 07:38:22;;;;;;;4.50;1.90;;;;;;;;;;105690;1291;64743;-29
2021/12/25 07:40:50;;;;;;;3.30;1.50;;;;;;;;;;105717;1292;64782;-23
2021/12/25 07:43:17;;;;;;;4.40;1.70;;;;;;;;;;105682;1294;64871;-23
2021/12/25 07:45:47;;;;;;;4.40;1.90;;;;;;;;;;105736;1293;65484;-23
2021/12/25 07:48:18;;;;;;;4.10;1.70;;;;;;;;;;105705;1293;64719;-22
2021/12/25 07:50:45;;;;;;;4.60;2.10;;;;;;;;;;105782;1291;64775;-26
2021/12/25 07:53:12;;;;;;;4.70;1.80;;;;;;;;;;105609;1294;64916;-31
2021/12/25 07:55:39;;;;;;;5.90;2.40;;;;;;;;;;105824;1294;64948;-31
2021/12/25 07:58:07;;;;;;;4.20;1.80;;;;;;;;;;105785;1293;64834;-27
2021/12/25 08:00:34;;;;;;;5.20;1.80;;;;;;;;;;105794;1290;64865;-25
2021/12/25 08:03:01;;;;;;;5.50;2.30;;;;;;;;;;105631;1294;64925;-26
2021/12/25 08:05:29;;;;;;;5.80;2.10;;;;;;;;;;105822;1291;64868;-22
2021/12/25 08:07:56;;;;;;;5.20;2.00;;;;;;;;;;105687;1291;64821;-21
2021/12/25 08:10:23;;;;;;;5.40;1.90;;;;;;;;;;105814;1291;64942;-22
2021/12/25 08:12:53;;;;;;;5.60;2.30;;;;;;;;;;105631;1295;65478;-26
2021/12/25 08:15:27;;;;;;;6.00;2.30;;;;;;;;;;105878;1290;64825;-22
2021/12/25 08:17:57;;;;;;;5.70;2.20;;;;;;;;;;105523;1293;64707;-23
2021/12/25 08:20:24;;;;;;;5.00;2.40;;;;;;;;;;105615;1294;64882;-26
2021/12/25 08:22:51;;;;;;;5.20;2.20;;;;;;;;;;105782;1290;64953;-25
2021/12/25 08:25:18;;;;;;;5.50;2.40;;;;;;;;;;105830;1294;64863;-26
2021/12/25 08:27:46;;;;;;;4.60;2.20;;;;;;;;;;105799;1292;64794;-30
2021/12/25 08:30:15;;;;;;;5.40;2.30;;;;;;;;;;105849;1294;64810;-24
2021/12/25 08:32:42;;;;;;;5.70;2.50;;;;;;;;;;105807;1293;64840;-22
2021/12/25 08:35:11;;;;;;;5.50;2.50;;;;;;;;;;105839;1292;64903;-24
2021/12/25 08:37:38;;;;;;;5.70;2.40;;;;;;;;;;105819;1294;64835;-26
2021/12/25 08:40:06;;;;;;;7.10;2.50;;;;;;;;;;105823;1291;64847;-26
2021/12/25 08:42:32;;;;;;;5.70;2.70;;;;;;;;;;105855;1293;64880;-26
2021/12/25 08:47:28;;;;;;;6.20;2.70;;;;;;;;;;105730;1292;64884;-21
2021/12/25 08:49:55;;;;;;;5.50;2.40;;;;;;;;;;105810;1294;64969;-21
2021/12/25 08:52:23;;;;;;;6.00;2.80;;;;;;;;;;105822;1294;64810;-22
2021/12/25 08:54:50;;;;;;;6.20;3.00;;;;;;;;;;105848;1295;64893;-29
2021/12/25 08:57:18;;;;;;;6.00;2.50;;;;;;;;;;105831;1291;64815;-27
2021/12/25 08:59:45;;;;;;;5.60;3.00;;;;;;;;;;105786;1294;64842;-22
2021/12/25 09:02:15;;;;;;;5.00;2.40;;;;;;;;;;105806;1294;64945;-22
2021/12/25 09:04:44;;;;;;;5.80;2.70;;;;;;;;;;105861;1294;64881;-25
2021/12/25 09:07:11;;;;;;;5.70;3.00;;;;;;;;;;105824;1294;65411;-26
2021/12/25 09:09:38;;;;;;;5.80;2.60;;;;;;;;;;105776;1291;64755;-32
2021/12/25 09:12:06;;;;;;;5.10;2.40;;;;;;;;;;105832;1290;64768;-24
2021/12/25 09:14:33;;;;;;;6.10;3.00;;;;;;;;;;105874;1291;64853;-23
2021/12/25 09:17:00;;;;;;;6.20;3.20;;;;;;;;;;105802;1292;64719;-26
2021/12/25 09:19:27;;;;;;;6.80;3.00;;;;;;;;;;105637;1291;242549;-22
2021/12/25 09:21:54;;;;;;;6.30;2.80;;;;;;;;;;105813;1294;64860;-23
2021/12/25 09:24:21;;;;;;;6.70;2.80;;;;;;;;;;105825;1292;64778;-26
2021/12/25 09:26:47;;;;;;;7.00;3.00;;;;;;;;;;105788;1294;65054;-27
2021/12/25 09:29:15;;;;;;;6.40;2.90;;;;;;;;;;105786;1294;64958;-25
2021/12/25 09:31:42;;;;;;;5.60;2.70;;;;;;;;;;105796;1294;65428;-26
2021/12/25 09:34:09;;;;;;;5.90;3.00;;;;;;;;;;105645;1293;65431;-26
2021/12/25 09:36:37;;;;;;;6.10;3.20;;;;;;;;;;105590;1292;64821;-25
2021/12/25 09:39:05;;;;;;;6.00;3.20;;;;;;;;;;105799;1294;64968;-33
2021/12/25 09:41:33;;;;;;;6.80;3.50;;;;;;;;;;105806;1291;64708;-26
2021/12/25 09:44:01;;;;;;;6.00;3.00;;;;;;;;;;105696;1294;64849;-26
2021/12/25 09:46:28;;;;;;;5.90;3.20;;;;;;;;;;105832;1288;64741;-27
2021/12/25 09:48:55;;;;;;;6.80;3.10;;;;;;;;;;105798;1291;64872;-27
2021/12/25 09:51:22;;;;;;;7.30;3.30;;;;;;;;;;105603;1292;65385;-23
2021/12/25 09:53:55;;;;;;;7.70;3.70;;;;;;;;;;105828;1291;64830;-22
2021/12/25 09:56:22;;;;;;;8.00;4.30;;;;;;;;;;105810;1294;64846;-25
2021/12/25 09:58:49;;;;;;;8.10;3.70;;;;;;;;;;105602;1296;64851;-31
2021/12/25 10:01:37;;;;;;;7.60;3.40;;;;;;;;;;105840;1294;64903;-22
2021/12/25 10:04:05;;;;;;;6.10;3.40;;;;;;;;;;105472;1295;64825;-23
2021/12/25 10:06:36;;;;;;;9.00;3.80;;;;;;;;;;105804;1294;65142;-22
2021/12/25 10:09:21;;;;;;;9.50;4.10;;;;;;;;;;105696;1295;64802;-24
2021/12/25 10:12:17;;;;;;;7.30;3.80;;;;;;;;;;105808;1294;64686;-26
2021/12/25 10:14:51;;;;;;;8.60;4.00;;;;;;;;;;105673;1294;64759;-26
2021/12/25 10:17:26;;;;;;;9.30;4.20;;;;;;;;;;105823;1294;65900;-26
2021/12/25 10:20:14;;;;;;;7.20;3.70;;;;;;;;;;105815;1292;64987;-22
2021/12/25 10:22:57;;;;;;;8.60;4.20;;;;;;;;;;105813;1294;64900;-24
2021/12/25 10:25:33;;;;;;;9.10;4.10;;;;;;;;;;105835;1295;64819;-37
2021/12/25 10:28:02;;;;;;;8.80;4.10;;;;;;;;;;105585;1292;64735;-22
2021/12/25 10:30:31;;;;;;;8.60;4.10;;;;;;;;;;105633;1293;64835;-26
2021/12/25 10:32:58;;;;;;;7.90;3.90;;;;;;;;;;105826;1291;64711;-26
2021/12/25 10:35:30;;;;;;;7.80;4.20;;;;;;;;;;105808;1294;64674;-25
2021/12/25 10:37:57;;;;;;;7.80;4.10;;;;;;;;;;105805;1292;64839;-26
2021/12/25 10:40:27;;;;;;;8.40;3.70;;;;;;;;;;105728;1296;64731;-25
2021/12/25 10:42:57;;;;;;;8.50;4.50;;;;;;;;;;105591;1292;64818;-25
2021/12/25 10:45:26;;;;;;;9.70;4.10;;;;;;;;;;105821;1294;64942;-30
2021/12/25 10:48:13;;;;;;;7.50;3.80;;;;;;;;;;105783;1295;65426;-22
2021/12/25 10:50:43;;;;;;;8.30;3.50;;;;;;;;;;105674;1291;64920;-39
2021/12/25 10:53:31;;;;;;;9.10;4.00;;;;;;;;;;105709;1296;64867;-31
2021/12/25 10:56:06;;;;;;;9.20;4.10;;;;;;;;;;105810;1292;64861;-26
2021/12/25 10:58:32;;;;;;;8.60;4.40;;;;;;;;;;105787;1293;64744;-35
2021/12/25 11:01:00;;;;;;;8.30;4.50;;;;;;;;;;105627;1292;64839;-38
2021/12/25 11:03:28;;;;;;;8.40;4.20;;;;;;;;;;105771;1294;64906;-26
2021/12/25 11:06:00;;;;;;;8.90;4.50;;;;;;;;;;105854;1291;64843;-23
2021/12/25 11:08:27;;;;;;;8.60;4.50;;;;;;;;;;105777;1294;64792;-24
2021/12/25 11:11:06;;;;;;;9.00;4.60;;;;;;;;;;105591;1292;64916;-24
2021/12/25 11:13:36;;;;;;;8.20;4.50;;;;;;;;;;105791;1294;64857;-22
2021/12/25 11:16:08;;;;;;;8.40;4.60;;;;;;;;;;105876;1295;64849;-26
2021/12/25 11:18:50;;;;;;;9.80;4.70;;;;;;;;;;105824;1292;64767;-25
2021/12/25 11:21:17;;;;;;;8.60;4.40;;;;;;;;;;105797;1291;64919;-25
2021/12/25 11:23:46;;;;;;;8.80;4.70;;;;;;;;;;105814;1293;64797;-27
2021/12/25 11:26:14;;;;;;;7.30;4.40;;;;;;;;;;105857;1293;64952;-22
2021/12/25 11:28:42;;;;;;;8.60;4.50;;;;;;;;;;105817;1296;64917;-27
2021/12/25 11:31:09;;;;;;;8.80;5.10;;;;;;;;;;105866;1295;64874;-27
2021/12/25 11:33:37;;;;;;;10.30;4.90;;;;;;;;;;105821;1294;64866;-33
2021/12/25 11:36:05;;;;;;;9.60;5.30;;;;;;;;;;105827;1295;64692;-26
2021/12/25 11:38:32;;;;;;;9.60;5.10;;;;;;;;;;105736;1296;64854;-26
2021/12/25 11:41:03;;;;;;;10.20;5.20;;;;;;;;;;105588;1293;65024;-25
2021/12/25 11:43:35;;;;;;;11.30;5.40;;;;;;;;;;105779;1294;64977;-26
2021/12/25 11:46:06;;;;;;;11.00;5.80;;;;;;;;;;105633;1296;64774;-25
2021/12/25 11:48:33;;;;;;;10.60;5.30;;;;;;;;;;105832;1292;64885;-23
2021/12/25 11:51:01;;;;;;;10.10;5.40;;;;;;;;;;105598;1296;64775;-25
2021/12/25 11:53:44;;;;;;;10.40;5.80;;;;;;;;;;105820;1295;64845;-29
2021/12/25 11:56:30;;;;;;;10.10;6.40;;;;;;;;;;105596;1292;64926;-28
2021/12/25 11:58:59;;;;;;;10.70;6.00;;;;;;;;;;105815;1294;64804;-46
2021/12/25 12:01:26;;;;;;;11.50;6.30;;;;;;;;;;105815;1294;65020;-22
2021/12/25 12:03:58;;;;;;;11.90;5.90;;;;;;;;;;105800;1294;64983;-26
2021/12/25 12:06:47;;;;;;;14.00;6.90;;;;;;;;;;105629;1294;64784;-22
2021/12/25 12:09:25;;;;;;;12.10;6.20;;;;;;;;;;105781;1293;64802;-22
2021/12/25 12:12:04;;;;;;;12.40;6.50;;;;;;;;;;105787;1292;64886;-28
2021/12/25 12:14:32;;;;;;;12.00;6.90;;;;;;;;;;105780;1292;64699;-22
2021/12/25 12:17:01;;;;;;;13.00;7.00;;;;;;;;;;105816;1295;64828;-23
2021/12/25 12:19:32;;;;;;;11.60;6.60;;;;;;;;;;105819;1287;64833;-26
2021/12/25 12:22:08;;;;;;;10.50;6.30;;;;;;;;;;105755;1294;65413;-21
2021/12/25 12:24:48;;;;;;;10.60;6.10;;;;;;;;;;105768;1294;63622;-26
2021/12/25 12:27:38;;;;;;;11.40;6.20;;;;;;;;;;105768;1292;64880;-21
2021/12/25 12:30:06;;;;;;;9.80;6.00;;;;;;;;;;105618;1295;65254;-22
2021/12/25 12:32:35;;;;;;;10.90;6.10;;;;;;;;;;105787;1294;64967;-21
2021/12/25 12:35:05;;;;;;;10.20;5.70;;;;;;;;;;105784;1293;64812;-26
2021/12/25 12:37:32;;;;;;;12.00;6.10;;;;;;;;;;105824;1294;64837;-26
2021/12/25 12:40:04;;;;;;;11.70;6.50;;;;;;;;;;105783;1294;64834;-24
2021/12/25 12:42:48;;;;;;;11.80;6.10;;;;;;;;;;105796;1291;64856;-25
2021/12/25 12:45:15;;;;;;;;;;;;;;;;;;105645;1292;64854;-22
2021/12/25 12:48:02;;;;;;;12.10;6.30;;;;;;;;;;105702;1294;64835;-21
2021/12/25 12:50:33;;;;;;;10.90;6.20;;;;;;;;;;105777;1294;64773;-26
2021/12/25 12:53:02;;;;;;;10.60;6.00;;;;;;;;;;105788;1291;64745;-27
2021/12/25 12:55:31;;;;;;;10.10;6.10;;;;;;;;;;105816;1294;64818;-22
2021/12/25 12:58:18;;;;;;;11.20;6.60;;;;;;;;;;105818;1290;64883;-22
2021/12/25 13:00:48;;;;;;;11.90;6.20;;;;;;;;;;105838;1288;64873;-22
2021/12/25 13:03:16;;;;;;;10.90;6.00;;;;;;;;;;105778;1290;64778;-23
2021/12/25 13:05:51;;;;;;;11.20;6.30;;;;;;;;;;105786;1291;64925;-22
2021/12/25 13:08:20;;;;;;;10.80;6.90;;;;;;;;;;105629;1294;64967;-23
2021/12/25 13:10:51;;;;;;;10.90;6.60;;;;;;;;;;105804;1293;64779;-25
2021/12/25 13:13:23;;;;;;;10.20;5.90;;;;;;;;;;105790;1294;64846;-25
2021/12/25 13:16:05;;;;;;;10.00;5.90;;;;;;;;;;105793;1294;64766;-29
2021/12/25 13:18:37;;;;;;;11.70;6.70;;;;;;;;;;105796;1283;64749;-25
2021/12/25 13:21:09;;;;;;;11.40;6.20;;;;;;;;;;105479;1297;64750;-26
2021/12/25 13:23:49;;;;;;;11.30;6.50;;;;;;;;;;105798;1294;64751;-27
2021/12/25 13:26:18;;;;;;;9.00;6.00;;;;;;;;;;105781;1294;64913;-21
2021/12/25 13:28:47;;;;;;;11.40;6.70;;;;;;;;;;105623;1293;64952;-25
2021/12/25 13:31:18;;;;;;;11.60;6.40;;;;;;;;;;105660;1294;65277;-22
2021/12/25 13:33:48;;;;;;;12.50;6.30;;;;;;;;;;105806;1291;64718;-22
2021/12/25 13:36:19;;;;;;;11.00;6.30;;;;;;;;;;105635;1290;64749;-27
2021/12/25 13:38:55;;;;;;;12.70;6.50;;;;;;;;;;105800;1295;64783;-28
2021/12/25 13:41:28;;;;;;;12.30;6.40;;;;;;;;;;105717;1295;64821;-23
2021/12/25 13:44:04;;;;;;;11.70;6.30;;;;;;;;;;105754;1293;64865;-26
2021/12/25 13:46:45;;;;;;;12.50;6.50;;;;;;;;;;105824;1291;64942;-21
2021/12/25 13:49:30;;;;;;;13.30;6.60;;;;;;;;;;105818;1292;64743;-25
2021/12/25 13:51:59;;;;;;;11.90;7.30;;;;;;;;;;105782;1294;64807;-22
2021/12/25 13:54:26;;;;;;;12.30;6.90;;;;;;;;;;105598;1293;65597;-22
2021/12/25 13:56:55;;;;;;;12.10;7.20;;;;;;;;;;105793;1294;64817;-23
2021/12/25 13:59:23;;;;;;;11.70;6.90;;;;;;;;;;105634;1294;64879;-22
2021/12/25 14:01:56;;;;;;;12.50;7.30;;;;;;;;;;105814;1294;64841;-24
2021/12/25 14:04:23;;;;;;;12.60;8.00;;;;;;;;;;105688;1295;64860;-25
2021/12/25 14:06:51;;;;;;;13.40;7.60;;;;;;;;;;105791;1290;64845;-26
2021/12/25 14:09:18;;;;;;;11.90;7.20;;;;;;;;;;105804;1291;64949;-23
2021/12/25 14:11:54;;;;;;;11.90;7.10;;;;;;;;;;105813;1291;64772;-21
2021/12/25 14:14:22;;;;;;;13.00;7.30;;;;;;;;;;105570;1294;64933;-22
2021/12/25 14:16:50;;;;;;;11.80;7.50;;;;;;;;;;105801;1293;64751;-22
2021/12/25 14:19:18;;;;;;;13.60;7.40;;;;;;;;;;105797;1290;64734;-22
2021/12/25 14:21:55;;;;;;;13.50;7.00;;;;;;;;;;105814;1294;65474;-21
2021/12/25 14:24:22;;;;;;;14.40;7.60;;;;;;;;;;105802;1289;64740;-22
2021/12/25 14:26:50;;;;;;;15.60;7.70;;;;;;;;;;105814;1289;64921;-23
2021/12/25 14:29:19;;;;;;;13.60;7.90;;;;;;;;;;105808;1290;64877;-26
2021/12/25 14:31:46;;;;;;;14.30;7.50;;;;;;;;;;105792;1294;64782;-26
2021/12/25 14:34:13;;;;;;;14.90;7.80;;;;;;;;;;105817;1290;64776;-24
2021/12/25 14:36:41;;;;;;;14.90;8.40;;;;;;;;;;105827;1294;64846;-22
2021/12/25 14:39:12;;;;;;;12.50;7.90;;;;;;;;;;105646;1294;64872;-22
2021/12/25 14:41:40;;;;;;;14.30;7.50;;;;;;;;;;105834;1292;64684;-22
2021/12/25 14:44:20;;;;;;;12.90;7.70;;;;;;;;;;105793;1290;64994;-24
2021/12/25 14:46:50;;;;;;;12.60;7.30;;;;;;;;;;105823;1290;64845;-25
2021/12/25 14:49:18;;;;;;;12.10;7.80;;;;;;;;;;105817;1291;64738;-23
2021/12/25 14:51:46;;;;;;;14.80;8.20;;;;;;;;;;105795;1291;64797;-21
2021/12/25 14:54:14;;;;;;;13.20;7.60;;;;;;;;;;105822;1290;66447;-24
2021/12/25 14:56:43;;;;;;;13.90;8.10;;;;;;;;;;105517;1290;64771;-25
2021/12/25 14:59:15;;;;;;;12.70;7.60;;;;;;;;;;105793;1287;64842;-22
2021/12/25 15:01:45;;;;;;;14.10;7.90;;;;;;;;;;105816;1290;64834;-22
2021/12/25 15:04:14;;;;;;;13.70;8.40;;;;;;;;;;105800;1290;64893;-24
2021/12/25 15:06:45;;;;;;;13.00;7.10;;;;;;;;;;105811;1282;64915;-28
2021/12/25 15:09:18;;;;;;;11.30;7.80;;;;;;;;;;105622;1295;65096;-24
2021/12/25 15:11:48;;;;;;;12.70;7.80;;;;;;;;;;105836;1292;64854;-26
2021/12/25 15:14:17;;;;;;;12.20;7.80;;;;;;;;;;105853;1291;64845;-31
2021/12/25 15:16:48;;;;;;;13.00;7.50;;;;;;;;;;105649;1291;64829;-22
2021/12/25 15:19:27;;;;;;;13.00;7.80;;;;;;;;;;105831;1291;64833;-26
2021/12/25 15:21:55;;;;;;;13.90;7.70;;;;;;;;;;105838;1292;64843;-25
2021/12/25 15:24:23;;;;;;;13.90;8.00;;;;;;;;;;105807;1291;64826;-26
2021/12/25 15:26:53;;;;;;;13.10;8.00;;;;;;;;;;105789;1290;64749;-26
2021/12/25 15:29:20;;;;;;;12.40;7.50;;;;;;;;;;105864;1293;64778;-25
2021/12/25 15:31:47;;;;;;;13.30;7.80;;;;;;;;;;105785;1294;64757;-26
2021/12/25 15:34:16;;;;;;;14.60;8.10;;;;;;;;;;105798;1292;64870;-23
2021/12/25 15:36:45;;;;;;;14.60;8.20;;;;;;;;;;105826;1290;64870;-23
2021/12/25 15:39:20;;;;;;;12.70;7.40;;;;;;;;;;105650;1294;64848;-23
2021/12/25 15:41:48;;;;;;;13.90;7.90;;;;;;;;;;105553;1296;64841;-23
2021/12/25 15:44:17;;;;;;;13.30;7.90;;;;;;;;;;105840;1290;64925;-26
2021/12/25 15:46:44;;;;;;;14.00;8.70;;;;;;;;;;105792;1291;64771;-26